createdAt,value
2018-02-11T00:00:26.335Z,70.43
2018-02-11T00:02:53.817Z,70.12
2018-02-11T00:05:21.307Z,69.65
2018-02-11T00:07:48.772Z,69.81
2018-02-11T00:10:16.236Z,69.75
2018-02-11T00:12:43.764Z,69.57
2018-02-11T00:15:11.231Z,69.84
2018-02-11T00:17:38.742Z,70.29
2018-02-11T00:20:06.216Z,70.25
2018-02-11T00:22:33.689Z,70.76
2018-02-11T00:25:01.169Z,70.87
2018-02-11T00:27:28.641Z,70.80
2018-02-11T00:29:56.111Z,70.80
2018-02-11T00:32:23.598Z,70.61
2018-02-11T00:34:51.054Z,70.18
2018-02-11T00:37:24.004Z,70.52
2018-02-11T00:39:51.482Z,70.64
2018-02-11T00:42:18.932Z,70.97
2018-02-11T00:44:46.476Z,71.70
2018-02-11T00:47:13.940Z,70.56
2018-02-11T00:49:41.443Z,70.31
2018-02-11T00:52:09.111Z,70.60
2018-02-11T00:54:36.634Z,70.96
2018-02-11T00:57:04.114Z,70.76
2018-02-11T00:59:31.582Z,71.03
2018-02-11T01:01:59.105Z,70.90
2018-02-11T01:04:26.618Z,70.76
2018-02-11T01:06:54.095Z,70.08
2018-02-11T01:09:21.612Z,70.40
2018-02-11T01:11:50.092Z,70.69
2018-02-11T01:14:17.579Z,71.11
2018-02-11T01:16:45.065Z,71.04
2018-02-11T01:19:12.519Z,70.32
2018-02-11T01:21:40.104Z,70.50
2018-02-11T01:24:07.581Z,70.52
2018-02-11T01:26:35.081Z,70.71
2018-02-11T01:29:02.597Z,70.78
2018-02-11T01:31:30.092Z,70.72
2018-02-11T01:33:57.595Z,70.17
2018-02-11T01:36:26.185Z,70.59
2018-02-11T01:38:53.678Z,70.31
2018-02-11T01:41:21.154Z,70.36
2018-02-11T01:43:48.654Z,70.93
2018-02-11T01:46:16.156Z,71.28
2018-02-11T01:48:43.663Z,71.40
2018-02-11T01:51:11.122Z,71.47
2018-02-11T01:53:38.602Z,70.89
2018-02-11T01:56:06.096Z,70.60
2018-02-11T01:58:33.562Z,70.63
2018-02-11T02:01:01.070Z,71.00
2018-02-11T02:03:28.575Z,71.26
2018-02-11T02:05:56.038Z,71.26
2018-02-11T02:08:23.520Z,71.34
2018-02-11T02:10:51.036Z,71.53
2018-02-11T02:13:18.508Z,71.93
2018-02-11T02:15:46.631Z,71.77
2018-02-11T02:18:14.146Z,71.30
2018-02-11T02:20:41.643Z,71.59
2018-02-11T02:23:09.098Z,71.88
2018-02-11T02:25:36.563Z,71.80
2018-02-11T02:28:04.027Z,71.66
2018-02-11T02:30:31.475Z,71.40
2018-02-11T02:32:58.967Z,71.39
2018-02-11T02:35:26.521Z,71.28
2018-02-11T02:37:54.012Z,70.84
2018-02-11T02:40:21.496Z,70.86
2018-02-11T02:42:49.014Z,71.28
2018-02-11T02:45:16.571Z,71.48
2018-02-11T02:47:44.043Z,71.58
2018-02-11T02:50:11.523Z,71.72
2018-02-11T02:52:39.004Z,71.87
2018-02-11T02:55:06.487Z,71.86
2018-02-11T02:57:33.973Z,71.64
2018-02-11T03:00:01.446Z,71.52
2018-02-11T03:02:28.919Z,71.62
2018-02-11T03:04:56.389Z,71.44
2018-02-11T03:07:23.864Z,71.22
2018-02-11T03:09:51.345Z,71.29
2018-02-11T03:12:18.806Z,71.53
2018-02-11T03:14:46.328Z,71.21
2018-02-11T03:17:13.818Z,71.53
2018-02-11T03:19:41.304Z,71.61
2018-02-11T03:22:08.764Z,71.37
2018-02-11T03:24:36.505Z,71.81
2018-02-11T03:27:03.958Z,71.80
2018-02-11T03:29:31.414Z,71.72
2018-02-11T03:31:58.899Z,71.98
2018-02-11T03:34:26.358Z,71.63
2018-02-11T03:36:53.820Z,71.55
2018-02-11T03:39:21.298Z,71.54
2018-02-11T03:41:48.769Z,71.30
2018-02-11T03:44:16.240Z,71.42
2018-02-11T03:46:43.694Z,71.81
2018-02-11T03:49:11.159Z,71.91
2018-02-11T03:51:38.645Z,72.04
2018-02-11T03:54:06.128Z,72.34
2018-02-11T03:56:33.624Z,72.37
2018-02-11T03:59:01.105Z,72.08
2018-02-11T04:01:28.550Z,71.88
2018-02-11T04:03:56.121Z,71.11
2018-02-11T04:06:23.595Z,71.19
2018-02-11T04:08:51.055Z,70.90
2018-02-11T04:11:18.514Z,70.91
2018-02-11T04:13:45.976Z,71.65
2018-02-11T04:16:13.463Z,71.60
2018-02-11T04:18:40.982Z,71.37
2018-02-11T04:21:08.440Z,71.27
2018-02-11T04:23:35.910Z,71.15
2018-02-11T04:26:03.400Z,71.25
2018-02-11T04:28:30.921Z,71.35
2018-02-11T04:30:58.375Z,71.02
2018-02-11T04:33:25.856Z,71.29
2018-02-11T04:35:53.311Z,71.30
2018-02-11T04:38:20.802Z,71.34
2018-02-11T04:40:48.260Z,71.66
2018-02-11T04:43:15.767Z,71.44
2018-02-11T04:45:43.218Z,71.42
2018-02-11T04:48:10.703Z,71.32
2018-02-11T04:50:38.175Z,71.32
2018-02-11T04:53:05.627Z,71.05
2018-02-11T04:55:33.095Z,70.86
2018-02-11T04:58:00.569Z,70.79
2018-02-11T05:00:28.023Z,70.92
2018-02-11T05:02:55.484Z,71.19
2018-02-11T05:05:22.948Z,71.06
2018-02-11T05:07:50.423Z,70.66
2018-02-11T05:10:17.893Z,70.47
2018-02-11T05:12:45.372Z,70.41
2018-02-11T05:15:12.847Z,70.05
2018-02-11T05:17:40.308Z,69.97
2018-02-11T05:20:07.830Z,69.88
2018-02-11T05:22:35.297Z,70.46
2018-02-11T05:25:02.761Z,70.63
2018-02-11T05:27:30.233Z,70.36
2018-02-11T05:29:57.715Z,68.68
2018-02-11T05:32:25.175Z,69.19
2018-02-11T05:34:52.659Z,69.87
2018-02-11T05:37:20.119Z,70.64
2018-02-11T05:39:47.606Z,70.69
2018-02-11T05:42:15.088Z,70.82
2018-02-11T05:44:42.548Z,71.29
2018-02-11T05:47:10.038Z,71.66
2018-02-11T05:49:37.486Z,70.64
2018-02-11T05:52:04.950Z,69.99
2018-02-11T05:54:32.484Z,69.83
2018-02-11T05:56:59.949Z,69.91
2018-02-11T05:59:27.451Z,70.32
2018-02-11T06:01:54.910Z,70.37
2018-02-11T06:04:22.381Z,70.54
2018-02-11T06:06:49.869Z,71.25
2018-02-11T06:09:17.522Z,71.98
2018-02-11T06:11:45.015Z,72.65
2018-02-11T06:14:12.507Z,73.21
2018-02-11T06:16:39.967Z,73.73
2018-02-11T06:19:07.418Z,74.38
2018-02-11T06:21:34.916Z,75.67
2018-02-11T06:24:02.405Z,76.11
2018-02-11T06:26:29.874Z,77.13
2018-02-11T06:28:57.356Z,77.75
2018-02-11T06:31:24.811Z,78.17
2018-02-11T06:33:52.359Z,78.32
2018-02-11T06:36:19.913Z,79.16
2018-02-11T06:38:49.550Z,77.73
2018-02-11T06:41:17.089Z,75.89
2018-02-11T06:43:44.536Z,74.98
2018-02-11T06:46:11.986Z,73.22
2018-02-11T06:48:40.761Z,72.62
2018-02-11T06:51:08.236Z,72.24
2018-02-11T06:53:35.711Z,72.79
2018-02-11T06:56:03.652Z,73.28
2018-02-11T06:58:31.145Z,73.67
2018-02-11T07:00:58.591Z,73.76
2018-02-11T07:03:26.122Z,74.09
2018-02-11T07:05:53.591Z,74.52
2018-02-11T07:08:21.085Z,74.86
2018-02-11T07:10:48.556Z,74.71
2018-02-11T07:13:16.101Z,74.63
2018-02-11T07:15:44.378Z,74.56
2018-02-11T07:18:12.936Z,74.72
2018-02-11T07:20:40.620Z,73.80
2018-02-11T07:23:08.123Z,73.41
2018-02-11T07:25:35.595Z,73.23
2018-02-11T07:28:03.072Z,72.71
2018-02-11T07:30:30.594Z,72.24
2018-02-11T07:33:01.974Z,71.60
2018-02-11T07:35:29.508Z,71.69
2018-02-11T07:37:56.988Z,71.62
2018-02-11T07:40:24.570Z,71.43
2018-02-11T07:42:52.098Z,71.36
2018-02-11T07:45:19.595Z,71.41
2018-02-11T07:47:47.097Z,71.02
2018-02-11T07:50:14.554Z,70.05
2018-02-11T07:52:44.613Z,69.84
2018-02-11T07:55:12.100Z,69.29
2018-02-11T07:57:39.573Z,68.96
2018-02-11T08:00:07.087Z,68.38
2018-02-11T08:02:34.595Z,67.79
2018-02-11T08:05:02.064Z,66.94
2018-02-11T08:07:29.532Z,66.89
2018-02-11T08:09:57.010Z,66.66
2018-02-11T08:12:27.356Z,66.90
2018-02-11T08:14:54.840Z,66.30
2018-02-11T08:17:22.304Z,66.05
2018-02-11T08:19:49.785Z,65.77
2018-02-11T08:22:17.243Z,65.47
2018-02-11T08:24:45.748Z,65.38
2018-02-11T08:27:13.301Z,65.66
2018-02-11T08:29:40.785Z,65.61
2018-02-11T08:32:08.254Z,65.51
2018-02-11T08:34:35.755Z,65.73
2018-02-11T08:37:03.224Z,65.70
2018-02-11T08:39:30.707Z,65.90
2018-02-11T08:41:58.171Z,65.77
2018-02-11T08:44:25.639Z,65.43
2018-02-11T08:46:53.123Z,65.25
2018-02-11T08:49:20.579Z,64.82
2018-02-11T08:51:48.025Z,64.66
2018-02-11T08:54:15.885Z,64.14
2018-02-11T08:56:43.451Z,64.00
2018-02-11T08:59:10.937Z,63.72
2018-02-11T09:01:38.483Z,63.63
2018-02-11T09:04:05.949Z,63.53
2018-02-11T09:06:33.434Z,63.36
2018-02-11T09:09:00.959Z,63.14
2018-02-11T09:11:28.418Z,62.98
2018-02-11T09:13:55.933Z,62.92
2018-02-11T09:16:23.396Z,62.83
2018-02-11T09:18:50.865Z,63.16
2018-02-11T09:21:18.426Z,63.10
2018-02-11T09:23:45.891Z,62.72
2018-02-11T09:26:13.404Z,62.51
2018-02-11T09:28:41.708Z,62.24
2018-02-11T09:31:09.221Z,61.72
2018-02-11T09:33:36.786Z,61.32
2018-02-11T09:36:04.287Z,60.84
2018-02-11T09:38:31.752Z,60.49
2018-02-11T09:40:59.258Z,59.62
2018-02-11T09:43:26.812Z,59.51
2018-02-11T09:45:54.269Z,59.13
2018-02-11T09:48:21.826Z,59.40
2018-02-11T09:50:51.343Z,59.42
2018-02-11T09:53:19.359Z,59.18
2018-02-11T09:55:46.883Z,58.22
2018-02-11T09:58:14.344Z,57.83
2018-02-11T10:00:46.479Z,57.00
2018-02-11T10:03:14.831Z,56.05
2018-02-11T10:05:42.294Z,56.02
2018-02-11T10:08:09.795Z,55.71
2018-02-11T10:10:37.235Z,55.54
2018-02-11T10:13:04.682Z,55.13
2018-02-11T10:15:32.159Z,55.18
2018-02-11T10:17:59.606Z,54.35
2018-02-11T10:20:27.105Z,53.91
2018-02-11T10:22:54.630Z,53.09
2018-02-11T10:25:22.076Z,52.86
2018-02-11T10:27:49.524Z,52.68
2018-02-11T10:30:17.014Z,52.06
2018-02-11T10:32:44.476Z,51.60
2018-02-11T10:35:11.960Z,51.57
2018-02-11T10:37:39.435Z,52.07
2018-02-11T10:40:06.901Z,52.38
2018-02-11T10:42:34.362Z,52.55
2018-02-11T10:45:01.822Z,52.67
2018-02-11T10:47:29.298Z,53.07
2018-02-11T10:49:56.759Z,53.10
2018-02-11T10:52:24.242Z,53.45
2018-02-11T10:54:51.709Z,53.24
2018-02-11T10:57:19.182Z,53.38
2018-02-11T10:59:46.664Z,53.85
2018-02-11T11:02:14.108Z,53.99
2018-02-11T11:04:41.593Z,54.54
2018-02-11T11:07:09.068Z,54.60
2018-02-11T11:09:36.550Z,54.87
2018-02-11T11:12:04.023Z,55.24
2018-02-11T11:14:31.501Z,55.41
2018-02-11T11:16:59.667Z,55.35
2018-02-11T11:19:27.168Z,55.65
2018-02-11T11:21:54.670Z,55.73
2018-02-11T11:24:22.184Z,55.59
2018-02-11T11:26:52.566Z,55.34
2018-02-11T11:29:20.022Z,54.90
2018-02-11T11:31:47.516Z,54.80
2018-02-11T11:34:14.982Z,54.88
2018-02-11T11:36:42.463Z,54.50
2018-02-11T11:39:10.022Z,54.31
2018-02-11T11:41:37.512Z,54.57
2018-02-11T11:44:04.988Z,53.78
2018-02-11T11:46:32.831Z,53.65
2018-02-11T11:49:00.416Z,52.71
2018-02-11T11:51:27.884Z,52.59
2018-02-11T11:53:55.335Z,52.33
2018-02-11T11:56:22.815Z,52.22
2018-02-11T11:58:50.321Z,52.11
2018-02-11T12:01:18.517Z,51.24
2018-02-11T12:03:45.986Z,50.75
2018-02-11T12:06:13.483Z,50.30
2018-02-11T12:08:40.988Z,50.66
2018-02-11T12:11:08.463Z,51.06
2018-02-11T12:13:35.927Z,52.46
2018-02-11T12:16:03.421Z,53.22
2018-02-11T12:18:30.896Z,53.72
2018-02-11T12:20:58.385Z,53.92
2018-02-11T12:23:25.870Z,53.58
2018-02-11T12:25:53.770Z,53.11
2018-02-11T12:28:21.270Z,51.95
2018-02-11T12:30:48.753Z,50.99
2018-02-11T12:33:17.009Z,50.78
2018-02-11T12:35:44.491Z,51.48
2018-02-11T12:38:11.970Z,51.37
2018-02-11T12:40:40.947Z,51.83
2018-02-11T12:43:08.418Z,51.76
2018-02-11T12:45:36.141Z,51.45
2018-02-11T12:48:03.644Z,51.48
2018-02-11T12:50:31.116Z,51.53
2018-02-11T12:52:58.615Z,51.99
2018-02-11T12:55:26.525Z,52.51
2018-02-11T12:57:54.060Z,53.01
2018-02-11T13:00:21.553Z,52.60
2018-02-11T13:02:49.050Z,52.71
2018-02-11T13:05:16.532Z,52.28
2018-02-11T13:07:44.019Z,52.02
2018-02-11T13:10:11.547Z,51.39
2018-02-11T13:12:40.179Z,51.21
2018-02-11T13:15:07.643Z,50.97
2018-02-11T13:17:35.183Z,51.22
2018-02-11T13:20:02.698Z,50.73
2018-02-11T13:22:30.184Z,49.86
2018-02-11T13:24:57.684Z,49.31
2018-02-11T13:27:25.208Z,48.81
2018-02-11T13:29:52.773Z,48.87
2018-02-11T13:32:20.282Z,49.06
2018-02-11T13:34:47.770Z,49.90
2018-02-11T13:37:15.250Z,50.05
2018-02-11T13:39:42.737Z,50.28
2018-02-11T13:42:10.237Z,50.09
2018-02-11T13:44:37.754Z,51.04
2018-02-11T13:47:05.233Z,51.50
2018-02-11T13:49:32.744Z,51.50
2018-02-11T13:52:00.224Z,51.45
2018-02-11T13:54:27.786Z,51.76
2018-02-11T13:56:55.231Z,51.61
2018-02-11T13:59:23.602Z,50.54
2018-02-11T14:01:51.073Z,49.50
2018-02-11T14:04:18.604Z,48.75
2018-02-11T14:06:46.115Z,47.60
2018-02-11T14:09:13.587Z,47.70
2018-02-11T14:11:41.072Z,47.86
2018-02-11T14:14:08.555Z,48.17
2018-02-11T14:16:37.132Z,47.51
2018-02-11T14:19:04.615Z,47.43
2018-02-11T14:21:32.089Z,47.22
2018-02-11T14:23:59.546Z,46.13
2018-02-11T14:26:27.026Z,45.26
2018-02-11T14:28:54.510Z,44.59
2018-02-11T14:31:21.981Z,43.88
2018-02-11T14:33:49.444Z,44.04
2018-02-11T14:36:16.967Z,43.72
2018-02-11T14:38:44.424Z,42.96
2018-02-11T14:41:11.913Z,43.66
2018-02-11T14:43:39.398Z,42.89
2018-02-11T14:46:06.926Z,42.63
2018-02-11T14:48:34.392Z,43.11
2018-02-11T14:51:01.863Z,43.51
2018-02-11T14:53:29.388Z,44.04
2018-02-11T14:55:56.864Z,43.58
2018-02-11T14:58:24.343Z,44.33
2018-02-11T15:00:51.835Z,44.59
2018-02-11T15:03:19.355Z,45.06
2018-02-11T15:05:46.839Z,44.16
2018-02-11T15:08:14.339Z,43.51
2018-02-11T15:10:41.884Z,44.71
2018-02-11T15:13:09.346Z,45.36
2018-02-11T15:15:36.815Z,45.56
2018-02-11T15:18:04.330Z,46.09
2018-02-11T15:20:31.790Z,46.56
2018-02-11T15:22:59.292Z,46.50
2018-02-11T15:25:26.763Z,47.01
2018-02-11T15:27:54.233Z,48.12
2018-02-11T15:30:21.725Z,49.20
2018-02-11T15:32:49.730Z,49.54
2018-02-11T15:35:17.236Z,50.90
2018-02-11T15:37:44.727Z,51.03
2018-02-11T15:40:12.253Z,51.62
2018-02-11T15:42:40.548Z,52.20
2018-02-11T15:45:08.022Z,53.27
2018-02-11T15:47:35.570Z,54.64
2018-02-11T15:50:03.029Z,56.02
2018-02-11T15:52:30.514Z,57.01
2018-02-11T15:54:58.003Z,57.94
2018-02-11T15:57:25.501Z,59.10
2018-02-11T15:59:53.951Z,60.28
2018-02-11T16:02:21.442Z,61.22
2018-02-11T16:04:48.895Z,62.19
2018-02-11T16:07:16.396Z,62.77
2018-02-11T16:09:44.381Z,63.63
2018-02-11T16:12:11.844Z,64.19
2018-02-11T16:14:39.343Z,64.63
2018-02-11T16:17:06.795Z,65.60
2018-02-11T16:19:34.282Z,65.82
2018-02-11T16:22:01.820Z,66.11
2018-02-11T16:24:29.311Z,67.22
2018-02-11T16:26:56.832Z,67.11
2018-02-11T16:29:24.329Z,67.40
2018-02-11T16:31:51.776Z,67.54
2018-02-11T16:34:19.272Z,68.02
2018-02-11T16:36:46.762Z,68.36
2018-02-11T16:39:14.260Z,68.61
2018-02-11T16:41:41.731Z,68.81
2018-02-11T16:44:09.221Z,68.65
2018-02-11T16:46:36.683Z,69.33
2018-02-11T16:49:04.215Z,69.22
2018-02-11T16:51:31.678Z,69.07
2018-02-11T16:53:59.133Z,69.50
2018-02-11T16:56:26.616Z,69.55
2018-02-11T16:58:54.109Z,69.69
2018-02-11T17:01:21.592Z,69.69
2018-02-11T17:03:49.067Z,69.40
2018-02-11T17:06:16.529Z,69.14
2018-02-11T17:08:44.018Z,69.00
2018-02-11T17:11:11.493Z,69.11
2018-02-11T17:13:38.942Z,69.17
2018-02-11T17:16:06.429Z,68.94
2018-02-11T17:18:33.883Z,68.66
2018-02-11T17:21:01.344Z,68.03
2018-02-11T17:23:28.917Z,68.21
2018-02-11T17:25:56.355Z,68.19
2018-02-11T17:28:23.841Z,67.72
2018-02-11T17:30:51.321Z,67.55
2018-02-11T17:33:18.808Z,67.69
2018-02-11T17:35:46.321Z,67.90
2018-02-11T17:38:13.788Z,68.06
2018-02-11T17:40:41.924Z,67.98
2018-02-11T17:43:09.435Z,67.97
2018-02-11T17:45:36.899Z,67.86
2018-02-11T17:48:04.394Z,67.79
2018-02-11T17:50:31.860Z,67.84
2018-02-11T17:52:59.318Z,68.13
2018-02-11T17:55:26.813Z,67.44
2018-02-11T17:57:54.277Z,67.93
2018-02-11T18:00:21.726Z,68.12
2018-02-11T18:02:50.075Z,67.75
2018-02-11T18:05:17.526Z,67.89
2018-02-11T18:07:45.080Z,67.35
2018-02-11T18:10:12.566Z,67.91
2018-02-11T18:12:40.158Z,68.06
2018-02-11T18:15:07.663Z,68.07
2018-02-11T18:17:35.134Z,68.07
2018-02-11T18:20:02.627Z,67.70
2018-02-11T18:22:30.088Z,67.90
2018-02-11T18:24:57.562Z,68.04
2018-02-11T18:27:25.050Z,68.19
2018-02-11T18:29:52.534Z,67.91
2018-02-11T18:32:20.006Z,67.98
2018-02-11T18:34:47.501Z,68.12
2018-02-11T18:37:14.976Z,68.42
2018-02-11T18:39:42.459Z,68.44
2018-02-11T18:42:09.932Z,68.13
2018-02-11T18:44:37.404Z,68.26
2018-02-11T18:47:04.855Z,68.37
2018-02-11T18:49:32.408Z,67.86
2018-02-11T18:51:59.883Z,67.08
2018-02-11T18:54:27.340Z,67.63
2018-02-11T18:56:54.819Z,67.06
2018-02-11T18:59:22.358Z,67.12
2018-02-11T19:01:49.839Z,67.44
2018-02-11T19:04:17.312Z,67.40
2018-02-11T19:06:44.814Z,67.21
2018-02-11T19:09:12.306Z,67.27
2018-02-11T19:11:39.780Z,67.36
2018-02-11T19:14:07.260Z,67.63
2018-02-11T19:16:34.739Z,67.80
2018-02-11T19:19:02.234Z,67.78
2018-02-11T19:21:29.686Z,67.74
2018-02-11T19:23:57.202Z,68.17
2018-02-11T19:26:24.775Z,68.22
2018-02-11T19:28:52.296Z,67.91
2018-02-11T19:31:19.769Z,67.81
2018-02-11T19:33:47.260Z,67.71
2018-02-11T19:36:14.753Z,67.72
2018-02-11T19:38:42.215Z,68.16
2018-02-11T19:41:09.746Z,68.27
2018-02-11T19:43:37.278Z,68.12
2018-02-11T19:46:04.935Z,68.41
2018-02-11T19:48:32.453Z,68.68
2018-02-11T19:50:59.971Z,68.41
2018-02-11T19:53:27.434Z,67.97
2018-02-11T19:55:54.908Z,67.99
2018-02-11T19:58:22.411Z,67.88
2018-02-11T20:00:49.934Z,68.52
2018-02-11T20:03:17.539Z,68.77
2018-02-11T20:05:45.163Z,68.44
2018-02-11T20:08:12.842Z,68.44
2018-02-11T20:10:40.365Z,67.26
2018-02-11T20:13:07.878Z,67.07
2018-02-11T20:15:35.479Z,67.42
2018-02-11T20:18:03.076Z,67.74
2018-02-11T20:20:30.590Z,67.73
2018-02-11T20:22:58.292Z,67.44
2018-02-11T20:25:25.866Z,67.33
2018-02-11T20:27:53.363Z,67.16
2018-02-11T20:30:20.827Z,67.07
2018-02-11T20:32:48.380Z,67.32
2018-02-11T20:35:15.895Z,66.99
2018-02-11T20:37:43.405Z,66.18
2018-02-11T20:40:10.936Z,66.34
2018-02-11T20:42:38.455Z,66.55
2018-02-11T20:45:06.082Z,66.69
2018-02-11T20:47:33.564Z,66.92
2018-02-11T20:50:01.048Z,66.90
2018-02-11T20:52:28.538Z,66.92
2018-02-11T20:54:56.039Z,66.74
2018-02-11T20:57:23.546Z,66.82
2018-02-11T20:59:51.044Z,66.89
2018-02-11T21:02:18.613Z,67.03
2018-02-11T21:04:46.081Z,66.86
2018-02-11T21:07:13.571Z,67.33
2018-02-11T21:09:41.048Z,67.50
2018-02-11T21:12:08.512Z,67.52
2018-02-11T21:14:36.007Z,67.43
2018-02-11T21:17:03.477Z,67.54
2018-02-11T21:19:30.949Z,67.47
2018-02-11T21:21:58.468Z,67.61
2018-02-11T21:24:26.801Z,67.59
2018-02-11T21:26:54.268Z,67.65
2018-02-11T21:29:21.752Z,67.83
2018-02-11T21:31:49.228Z,68.02
2018-02-11T21:34:16.715Z,68.09
2018-02-11T21:36:44.161Z,68.24
2018-02-11T21:39:11.615Z,68.19
2018-02-11T21:41:39.087Z,68.48
2018-02-11T21:44:06.541Z,68.39
2018-02-11T21:46:34.004Z,68.66
2018-02-11T21:49:01.513Z,68.74
2018-02-11T21:51:28.962Z,68.58
2018-02-11T21:53:56.457Z,68.71
2018-02-11T21:56:23.933Z,68.73
2018-02-11T21:58:51.430Z,68.89
2018-02-11T22:01:19.000Z,69.20
2018-02-11T22:03:46.458Z,69.24
2018-02-11T22:06:13.928Z,69.30
2018-02-11T22:08:41.412Z,69.52
2018-02-11T22:11:08.873Z,69.67
2018-02-11T22:13:36.344Z,69.79
2018-02-11T22:16:03.875Z,69.85
2018-02-11T22:18:31.347Z,70.01
2018-02-11T22:20:58.863Z,70.31
2018-02-11T22:23:26.401Z,70.13
2018-02-11T22:25:53.884Z,70.33
2018-02-11T22:28:21.375Z,70.37
2018-02-11T22:30:48.853Z,70.17
2018-02-11T22:33:17.002Z,70.27
2018-02-11T22:35:44.511Z,70.17
2018-02-11T22:38:12.020Z,70.58
2018-02-11T22:40:39.948Z,70.82
2018-02-11T22:43:07.477Z,71.27
2018-02-11T22:45:34.953Z,71.39
2018-02-11T22:48:02.444Z,71.49
2018-02-11T22:50:29.882Z,71.49
2018-02-11T22:52:57.342Z,71.50
2018-02-11T22:55:24.898Z,71.41
2018-02-11T22:57:52.361Z,71.77
2018-02-11T23:00:19.844Z,71.64
2018-02-11T23:02:47.395Z,71.55
2018-02-11T23:05:14.908Z,71.46
2018-02-11T23:07:42.364Z,71.61
2018-02-11T23:10:09.839Z,71.67
2018-02-11T23:12:38.821Z,71.87
2018-02-11T23:15:06.294Z,71.59
2018-02-11T23:17:33.774Z,71.76
2018-02-11T23:20:01.238Z,71.96
2018-02-11T23:22:28.690Z,72.12
2018-02-11T23:24:56.155Z,71.98
2018-02-11T23:27:23.641Z,72.28
2018-02-11T23:29:51.103Z,72.41
2018-02-11T23:32:18.599Z,72.32
2018-02-11T23:34:47.538Z,72.49
2018-02-11T23:37:15.062Z,72.48
2018-02-11T23:39:43.536Z,72.42
2018-02-11T23:42:11.187Z,72.48
2018-02-11T23:44:38.752Z,72.63
2018-02-11T23:47:06.248Z,72.75
2018-02-11T23:49:33.767Z,72.87
2018-02-11T23:52:01.234Z,72.86
2018-02-11T23:54:28.708Z,72.90
2018-02-11T23:56:56.194Z,72.80
2018-02-11T23:59:23.684Z,72.72
